sensor_id;sensor_type;location;lat;lon;timestamp;pressure;altitude;pressure_sealevel;temperature;humidity
70304;BME280;57712;48.752;11.348;2023-09-19T00:00:22;97213.97;;;16.24;100.00
70304;BME280;57712;48.752;11.348;2023-09-19T00:02:56;97218.13;;;16.29;100.00
70304;BME280;57712;48.752;11.348;2023-09-19T00:05:24;97217.47;;;16.34;100.00
70304;BME280;57712;48.752;11.348;2023-09-19T00:07:52;97217.78;;;16.36;100.00
70304;BME280;57712;48.752;11.348;2023-09-19T00:10:24;97217.38;;;16.19;100.00
70304;BME280;57712;48.752;11.348;2023-09-19T00:12:54;97215.06;;;16.27;100.00
70304;BME280;57712;48.752;11.348;2023-09-19T00:15:26;97214.72;;;16.25;100.00
70304;BME280;57712;48.752;11.348;2023-09-19T00:17:56;97211.97;;;16.25;100.00
70304;BME280;57712;48.752;11.348;2023-09-19T00:20:22;97211.69;;;16.23;100.00
70304;BME280;57712;48.752;11.348;2023-09-19T00:22:50;97210.75;;;16.26;100.00
70304;BME280;57712;48.752;11.348;2023-09-19T00:25:19;97215.50;;;16.25;100.00
70304;BME280;57712;48.752;11.348;2023-09-19T00:27:47;97212.88;;;16.31;100.00
70304;BME280;57712;48.752;11.348;2023-09-19T00:30:18;97218.44;;;16.22;100.00
70304;BME280;57712;48.752;11.348;2023-09-19T00:32:51;97216.59;;;16.19;100.00
70304;BME280;57712;48.752;11.348;2023-09-19T00:35:21;97219.84;;;16.17;100.00
70304;BME280;57712;48.752;11.348;2023-09-19T00:37:52;97227.81;;;16.15;100.00
70304;BME280;57712;48.752;11.348;2023-09-19T00:40:19;97224.75;;;16.13;100.00
70304;BME280;57712;48.752;11.348;2023-09-19T00:42:48;97223.38;;;16.08;100.00
70304;BME280;57712;48.752;11.348;2023-09-19T00:45:17;97227.84;;;16.06;100.00
70304;BME280;57712;48.752;11.348;2023-09-19T00:47:47;97229.19;;;16.10;100.00
70304;BME280;57712;48.752;11.348;2023-09-19T00:50:19;97222.44;;;16.02;100.00
70304;BME280;57712;48.752;11.348;2023-09-19T00:52:48;97232.28;;;16.03;100.00
70304;BME280;57712;48.752;11.348;2023-09-19T00:55:16;97236.25;;;16.02;100.00
70304;BME280;57712;48.752;11.348;2023-09-19T00:57:46;97230.91;;;15.99;100.00
70304;BME280;57712;48.752;11.348;2023-09-19T01:00:14;97238.13;;;15.96;100.00
70304;BME280;57712;48.752;11.348;2023-09-19T01:02:42;97241.19;;;15.98;100.00
70304;BME280;57712;48.752;11.348;2023-09-19T01:05:11;97238.72;;;16.00;100.00
70304;BME280;57712;48.752;11.348;2023-09-19T01:07:39;97235.97;;;16.09;100.00
70304;BME280;57712;48.752;11.348;2023-09-19T01:10:08;97233.81;;;15.95;100.00
70304;BME280;57712;48.752;11.348;2023-09-19T01:12:47;97239.06;;;15.84;100.00
70304;BME280;57712;48.752;11.348;2023-09-19T01:15:32;97253.63;;;15.84;100.00
70304;BME280;57712;48.752;11.348;2023-09-19T01:20:47;97245.78;;;15.83;100.00
70304;BME280;57712;48.752;11.348;2023-09-19T01:23:24;97252.06;;;15.83;100.00
70304;BME280;57712;48.752;11.348;2023-09-19T01:26:04;97238.25;;;15.93;100.00
70304;BME280;57712;48.752;11.348;2023-09-19T01:29:00;97233.19;;;16.00;100.00
70304;BME280;57712;48.752;11.348;2023-09-19T01:31:29;97243.03;;;16.01;100.00
70304;BME280;57712;48.752;11.348;2023-09-19T01:33:59;97246.09;;;16.03;100.00
70304;BME280;57712;48.752;11.348;2023-09-19T01:36:28;97239.94;;;16.08;100.00
70304;BME280;57712;48.752;11.348;2023-09-19T01:38:56;97247.19;;;16.06;100.00
70304;BME280;57712;48.752;11.348;2023-09-19T01:41:49;97239.31;;;16.04;100.00
70304;BME280;57712;48.752;11.348;2023-09-19T01:44:31;97235.97;;;16.09;100.00
70304;BME280;57712;48.752;11.348;2023-09-19T01:47:10;97243.94;;;16.07;100.00
70304;BME280;57712;48.752;11.348;2023-09-19T01:49:45;97255.59;;;16.11;100.00
70304;BME280;57712;48.752;11.348;2023-09-19T01:52:19;97256.22;;;16.06;100.00
70304;BME280;57712;48.752;11.348;2023-09-19T01:54:50;97257.31;;;16.09;100.00
70304;BME280;57712;48.752;11.348;2023-09-19T01:57:27;97265.44;;;16.03;100.00
70304;BME280;57712;48.752;11.348;2023-09-19T02:00:02;97248.38;;;16.14;100.00
70304;BME280;57712;48.752;11.348;2023-09-19T02:02:37;97249.31;;;16.11;100.00
70304;BME280;57712;48.752;11.348;2023-09-19T02:05:04;97247.00;;;16.09;100.00
70304;BME280;57712;48.752;11.348;2023-09-19T02:07:32;97248.38;;;16.14;100.00
70304;BME280;57712;48.752;11.348;2023-09-19T02:09:59;97252.25;;;16.16;100.00
70304;BME280;57712;48.752;11.348;2023-09-19T02:12:38;97251.78;;;16.18;100.00
70304;BME280;57712;48.752;11.348;2023-09-19T02:15:05;97252.38;;;16.13;100.00
70304;BME280;57712;48.752;11.348;2023-09-19T02:17:33;97253.44;;;16.25;100.00
70304;BME280;57712;48.752;11.348;2023-09-19T02:20:00;97252.22;;;16.26;100.00
70304;BME280;57712;48.752;11.348;2023-09-19T02:22:27;97259.13;;;16.21;100.00
70304;BME280;57712;48.752;11.348;2023-09-19T02:24:54;97266.06;;;16.26;100.00
70304;BME280;57712;48.752;11.348;2023-09-19T02:27:21;97271.25;;;16.24;100.00
70304;BME280;57712;48.752;11.348;2023-09-19T02:29:47;97274.63;;;16.28;100.00
70304;BME280;57712;48.752;11.348;2023-09-19T02:32:16;97275.41;;;16.28;100.00
70304;BME280;57712;48.752;11.348;2023-09-19T02:34:44;97278.34;;;16.15;100.00
70304;BME280;57712;48.752;11.348;2023-09-19T02:37:11;97276.19;;;16.10;100.00
70304;BME280;57712;48.752;11.348;2023-09-19T02:39:39;97281.22;;;16.03;100.00
70304;BME280;57712;48.752;11.348;2023-09-19T02:42:06;97281.41;;;15.99;100.00
70304;BME280;57712;48.752;11.348;2023-09-19T02:44:33;97282.31;;;15.87;100.00
70304;BME280;57712;48.752;11.348;2023-09-19T02:47:00;97290.63;;;15.96;100.00
70304;BME280;57712;48.752;11.348;2023-09-19T02:49:27;97288.63;;;15.97;100.00
70304;BME280;57712;48.752;11.348;2023-09-19T02:51:53;97290.16;;;15.98;100.00
70304;BME280;57712;48.752;11.348;2023-09-19T02:54:21;97304.09;;;16.03;100.00
70304;BME280;57712;48.752;11.348;2023-09-19T02:56:48;97294.59;;;16.04;100.00
70304;BME280;57712;48.752;11.348;2023-09-19T02:59:15;97298.28;;;15.92;100.00
70304;BME280;57712;48.752;11.348;2023-09-19T03:01:45;97301.19;;;15.98;100.00
70304;BME280;57712;48.752;11.348;2023-09-19T03:04:14;97303.03;;;15.92;100.00
70304;BME280;57712;48.752;11.348;2023-09-19T03:06:46;97313.94;;;15.95;100.00
70304;BME280;57712;48.752;11.348;2023-09-19T03:09:17;97294.91;;;15.97;100.00
70304;BME280;57712;48.752;11.348;2023-09-19T03:11:45;97304.91;;;15.95;100.00
70304;BME280;57712;48.752;11.348;2023-09-19T03:14:12;97307.47;;;15.89;100.00
70304;BME280;57712;48.752;11.348;2023-09-19T03:16:40;97306.84;;;15.94;100.00
70304;BME280;57712;48.752;11.348;2023-09-19T03:19:07;97312.56;;;16.00;100.00
70304;BME280;57712;48.752;11.348;2023-09-19T03:21:36;97313.03;;;15.98;100.00
70304;BME280;57712;48.752;11.348;2023-09-19T03:24:03;97314.84;;;15.92;100.00
70304;BME280;57712;48.752;11.348;2023-09-19T03:26:30;97316.38;;;15.93;100.00
70304;BME280;57712;48.752;11.348;2023-09-19T03:28:57;97314.56;;;15.99;100.00
70304;BME280;57712;48.752;11.348;2023-09-19T03:31:24;97318.09;;;16.00;100.00
70304;BME280;57712;48.752;11.348;2023-09-19T03:33:50;97325.00;;;15.95;100.00
70304;BME280;57712;48.752;11.348;2023-09-19T03:36:17;97326.09;;;16.07;100.00
70304;BME280;57712;48.752;11.348;2023-09-19T03:38:44;97327.91;;;16.10;100.00
70304;BME280;57712;48.752;11.348;2023-09-19T03:41:10;97319.78;;;16.06;100.00
70304;BME280;57712;48.752;11.348;2023-09-19T03:43:40;97329.31;;;16.05;100.00
70304;BME280;57712;48.752;11.348;2023-09-19T03:46:08;97328.38;;;16.08;100.00
70304;BME280;57712;48.752;11.348;2023-09-19T03:48:34;97329.44;;;16.11;100.00
70304;BME280;57712;48.752;11.348;2023-09-19T03:51:01;97325.31;;;16.06;100.00
70304;BME280;57712;48.752;11.348;2023-09-19T03:53:28;97324.06;;;15.98;100.00
70304;BME280;57712;48.752;11.348;2023-09-19T03:55:55;97333.63;;;16.15;100.00
70304;BME280;57712;48.752;11.348;2023-09-19T03:58:21;97331.75;;;16.12;100.00
70304;BME280;57712;48.752;11.348;2023-09-19T04:00:48;97333.63;;;16.15;100.00
70304;BME280;57712;48.752;11.348;2023-09-19T04:03:16;97334.22;;;16.20;100.00
70304;BME280;57712;48.752;11.348;2023-09-19T04:05:47;97328.09;;;16.15;100.00
70304;BME280;57712;48.752;11.348;2023-09-19T04:08:14;97331.28;;;16.14;100.00
70304;BME280;57712;48.752;11.348;2023-09-19T04:10:44;97334.06;;;16.05;100.00
70304;BME280;57712;48.752;11.348;2023-09-19T04:13:12;97328.06;;;15.97;100.00
70304;BME280;57712;48.752;11.348;2023-09-19T04:15:39;97332.06;;;15.96;100.00
70304;BME280;57712;48.752;11.348;2023-09-19T04:18:06;97341.41;;;15.99;100.00
70304;BME280;57712;48.752;11.348;2023-09-19T04:20:33;97342.78;;;16.03;100.00
70304;BME280;57712;48.752;11.348;2023-09-19T04:23:00;97336.06;;;15.95;100.00
70304;BME280;57712;48.752;11.348;2023-09-19T04:25:26;97346.94;;;15.99;100.00
70304;BME280;57712;48.752;11.348;2023-09-19T04:27:54;97348.00;;;16.01;100.00
70304;BME280;57712;48.752;11.348;2023-09-19T04:30:21;97345.56;;;16.03;100.00
70304;BME280;57712;48.752;11.348;2023-09-19T04:32:47;97360.91;;;15.95;100.00
70304;BME280;57712;48.752;11.348;2023-09-19T04:35:17;97364.59;;;16.01;100.00
70304;BME280;57712;48.752;11.348;2023-09-19T04:37:44;97366.13;;;16.11;100.00
70304;BME280;57712;48.752;11.348;2023-09-19T04:40:11;97366.91;;;16.12;100.00
70304;BME280;57712;48.752;11.348;2023-09-19T04:42:44;97373.84;;;16.16;100.00
70304;BME280;57712;48.752;11.348;2023-09-19T04:45:11;97370.13;;;16.10;100.00
70304;BME280;57712;48.752;11.348;2023-09-19T04:47:38;97383.00;;;16.04;100.00
70304;BME280;57712;48.752;11.348;2023-09-19T04:50:09;97380.88;;;15.99;100.00
70304;BME280;57712;48.752;11.348;2023-09-19T04:52:41;97394.69;;;16.08;100.00
70304;BME280;57712;48.752;11.348;2023-09-19T04:55:12;97395.31;;;16.12;100.00
70304;BME280;57712;48.752;11.348;2023-09-19T04:57:48;97390.41;;;16.16;100.00
70304;BME280;57712;48.752;11.348;2023-09-19T05:00:16;97392.41;;;16.25;100.00
70304;BME280;57712;48.752;11.348;2023-09-19T05:02:51;97387.81;;;16.22;100.00
70304;BME280;57712;48.752;11.348;2023-09-19T05:05:18;97396.25;;;16.19;100.00
70304;BME280;57712;48.752;11.348;2023-09-19T05:07:46;97391.34;;;16.23;100.00
70304;BME280;57712;48.752;11.348;2023-09-19T05:10:12;97401.16;;;16.24;100.00
70304;BME280;57712;48.752;11.348;2023-09-19T05:12:40;97399.63;;;16.23;100.00
70304;BME280;57712;48.752;11.348;2023-09-19T05:15:08;97401.47;;;16.16;100.00
70304;BME280;57712;48.752;11.348;2023-09-19T05:17:35;97404.38;;;16.22;100.00
70304;BME280;57712;48.752;11.348;2023-09-19T05:20:02;97400.56;;;16.20;100.00
70304;BME280;57712;48.752;11.348;2023-09-19T05:22:32;97397.78;;;16.10;100.00
70304;BME280;57712;48.752;11.348;2023-09-19T05:24:59;97397.47;;;16.08;100.00
70304;BME280;57712;48.752;11.348;2023-09-19T05:27:26;97399.94;;;16.15;100.00
70304;BME280;57712;48.752;11.348;2023-09-19T05:29:53;97397.47;;;16.08;100.00
70304;BME280;57712;48.752;11.348;2023-09-19T05:32:19;97388.56;;;16.13;100.00
70304;BME280;57712;48.752;11.348;2023-09-19T05:34:46;97388.25;;;16.11;100.00
70304;BME280;57712;48.752;11.348;2023-09-19T05:37:16;97398.69;;;16.07;100.00
70304;BME280;57712;48.752;11.348;2023-09-19T05:39:42;97400.53;;;16.10;100.00
70304;BME280;57712;48.752;11.348;2023-09-19T05:42:10;97401.47;;;16.16;100.00
70304;BME280;57712;48.752;11.348;2023-09-19T05:44:36;97394.25;;;16.19;100.00
70304;BME280;57712;48.752;11.348;2023-09-19T05:47:03;97400.56;;;16.20;100.00
70304;BME280;57712;48.752;11.348;2023-09-19T05:49:30;97405.59;;;16.12;100.00
70304;BME280;57712;48.752;11.348;2023-09-19T05:51:57;97410.06;;;16.19;100.00
70304;BME280;57712;48.752;11.348;2023-09-19T05:54:25;97408.09;;;16.28;100.00
70304;BME280;57712;48.752;11.348;2023-09-19T05:56:52;97417.44;;;16.22;100.00
70304;BME280;57712;48.752;11.348;2023-09-19T05:59:19;97418.84;;;16.26;100.00
70304;BME280;57712;48.752;11.348;2023-09-19T06:01:46;97429.13;;;16.26;100.00
70304;BME280;57712;48.752;11.348;2023-09-19T06:04:13;97426.06;;;16.33;100.00
70304;BME280;57712;48.752;11.348;2023-09-19T06:06:40;97421.75;;;16.32;100.00
70304;BME280;57712;48.752;11.348;2023-09-19T06:09:06;97415.75;;;16.33;100.00
70304;BME280;57712;48.752;11.348;2023-09-19T06:11:36;97426.38;;;16.44;100.00
70304;BME280;57712;48.752;11.348;2023-09-19T06:14:04;97428.53;;;16.49;100.00
70304;BME280;57712;48.752;11.348;2023-09-19T06:16:30;97430.38;;;16.43;100.00
70304;BME280;57712;48.752;11.348;2023-09-19T06:19:00;97432.69;;;16.54;100.00
70304;BME280;57712;48.752;11.348;2023-09-19T06:21:27;97430.13;;;16.68;100.00
70304;BME280;57712;48.752;11.348;2023-09-19T06:23:54;97430.69;;;16.63;100.00
70304;BME280;57712;48.752;11.348;2023-09-19T06:26:20;97435.63;;;16.78;100.00
70304;BME280;57712;48.752;11.348;2023-09-19T06:28:47;97431.78;;;16.84;100.00
70304;BME280;57712;48.752;11.348;2023-09-19T06:31:14;97440.53;;;16.92;100.00
70304;BME280;57712;48.752;11.348;2023-09-19T06:33:40;97438.53;;;16.92;100.00
70304;BME280;57712;48.752;11.348;2023-09-19T06:36:08;97434.06;;;17.04;100.00
70304;BME280;57712;48.752;11.348;2023-09-19T06:38:35;97435.91;;;17.07;100.00
70304;BME280;57712;48.752;11.348;2023-09-19T06:41:02;97431.88;;;17.17;100.00
70304;BME280;57712;48.752;11.348;2023-09-19T06:43:33;97432.81;;;17.14;100.00
70304;BME280;57712;48.752;11.348;2023-09-19T06:46:01;97435.84;;;17.35;100.00
70304;BME280;57712;48.752;11.348;2023-09-19T06:48:28;97432.44;;;17.40;100.00
70304;BME280;57712;48.752;11.348;2023-09-19T06:50:56;97434.00;;;17.41;100.00
70304;BME280;57712;48.752;11.348;2023-09-19T06:53:25;97436.56;;;17.53;100.00
70304;BME280;57712;48.752;11.348;2023-09-19T06:55:52;97434.63;;;17.36;100.00
70304;BME280;57712;48.752;11.348;2023-09-19T06:58:18;97432.44;;;17.40;100.00
70304;BME280;57712;48.752;11.348;2023-09-19T07:00:47;97440.09;;;17.63;100.00
70304;BME280;57712;48.752;11.348;2023-09-19T07:03:14;97439.91;;;17.67;100.00
70304;BME280;57712;48.752;11.348;2023-09-19T07:05:42;97445.56;;;17.81;100.00
70304;BME280;57712;48.752;11.348;2023-09-19T07:08:10;97447.47;;;17.57;100.00
70304;BME280;57712;48.752;11.348;2023-09-19T07:10:40;97451.47;;;17.74;100.00
70304;BME280;57712;48.752;11.348;2023-09-19T07:13:16;97451.38;;;17.93;100.00
70304;BME280;57712;48.752;11.348;2023-09-19T07:15:44;97452.22;;;18.32;100.00
70304;BME280;57712;48.752;11.348;2023-09-19T07:18:14;97448.53;;;18.02;100.00
70304;BME280;57712;48.752;11.348;2023-09-19T07:20:44;97447.50;;;18.23;100.00
70304;BME280;57712;48.752;11.348;2023-09-19T07:23:21;97452.41;;;18.04;100.00
70304;BME280;57712;48.752;11.348;2023-09-19T07:25:49;97458.53;;;17.75;100.00
70304;BME280;57712;48.752;11.348;2023-09-19T07:28:16;97462.06;;;17.76;100.00
70304;BME280;57712;48.752;11.348;2023-09-19T07:30:43;97459.75;;;17.83;100.00
70304;BME280;57712;48.752;11.348;2023-09-19T07:33:10;97459.81;;;17.98;100.00
70304;BME280;57712;48.752;11.348;2023-09-19T07:35:38;97459.06;;;18.22;100.00
70304;BME280;57712;48.752;11.348;2023-09-19T07:38:08;97455.75;;;18.32;100.00
70304;BME280;57712;48.752;11.348;2023-09-19T07:40:36;97455.66;;;18.27;100.00
70304;BME280;57712;48.752;11.348;2023-09-19T07:43:03;97452.94;;;18.41;100.00
70304;BME280;57712;48.752;11.348;2023-09-19T07:45:31;97451.28;;;18.83;100.00
70304;BME280;57712;48.752;11.348;2023-09-19T07:47:58;97457.09;;;18.70;100.00
70304;BME280;57712;48.752;11.348;2023-09-19T07:50:31;97456.88;;;18.97;100.00
70304;BME280;57712;48.752;11.348;2023-09-19T07:52:59;97461.09;;;19.08;100.00
70304;BME280;57712;48.752;11.348;2023-09-19T07:55:26;97457.00;;;19.18;100.00
70304;BME280;57712;48.752;11.348;2023-09-19T07:57:52;97457.00;;;19.18;100.00
70304;BME280;57712;48.752;11.348;2023-09-19T08:00:19;97462.16;;;19.10;100.00
70304;BME280;57712;48.752;11.348;2023-09-19T08:02:46;97459.16;;;18.99;100.00
70304;BME280;57712;48.752;11.348;2023-09-19T08:05:24;97461.75;;;19.02;100.00
70304;BME280;57712;48.752;11.348;2023-09-19T08:07:51;97459.44;;;18.86;100.00
70304;BME280;57712;48.752;11.348;2023-09-19T08:10:19;97465.28;;;19.03;100.00
70304;BME280;57712;48.752;11.348;2023-09-19T08:12:48;97480.09;;;18.85;100.00
70304;BME280;57712;48.752;11.348;2023-09-19T08:15:17;97476.09;;;18.86;100.00
70304;BME280;57712;48.752;11.348;2023-09-19T08:17:47;97489.91;;;18.48;100.00
70304;BME280;57712;48.752;11.348;2023-09-19T08:20:14;97479.75;;;18.44;100.00
70304;BME280;57712;48.752;11.348;2023-09-19T08:22:52;97487.41;;;18.73;100.00
70304;BME280;57712;48.752;11.348;2023-09-19T08:25:21;97490.59;;;18.81;100.00
70304;BME280;57712;48.752;11.348;2023-09-19T08:27:49;97486.94;;;18.75;100.00
70304;BME280;57712;48.752;11.348;2023-09-19T08:30:17;97484.38;;;18.62;100.00
70304;BME280;57712;48.752;11.348;2023-09-19T08:32:44;97499.69;;;18.58;100.00
70304;BME280;57712;48.752;11.348;2023-09-19T08:35:13;97488.19;;;18.50;100.00
70304;BME280;57712;48.752;11.348;2023-09-19T08:37:42;97492.47;;;18.27;100.00
70304;BME280;57712;48.752;11.348;2023-09-19T08:40:09;97495.88;;;18.22;100.00
70304;BME280;57712;48.752;11.348;2023-09-19T08:42:53;97496.88;;;18.34;100.00
70304;BME280;57712;48.752;11.348;2023-09-19T08:45:21;97500.25;;;18.14;100.00
70304;BME280;57712;48.752;11.348;2023-09-19T08:47:59;97506.81;;;18.26;100.00
70304;BME280;57712;48.752;11.348;2023-09-19T08:50:29;97534.81;;;18.37;100.00
70304;BME280;57712;48.752;11.348;2023-09-19T08:53:00;97542.13;;;17.55;100.00
70304;BME280;57712;48.752;11.348;2023-09-19T08:55:28;97553.06;;;17.50;100.00
70304;BME280;57712;48.752;11.348;2023-09-19T08:58:06;97572.16;;;17.11;100.00
70304;BME280;57712;48.752;11.348;2023-09-19T09:00:36;97582.47;;;17.01;100.00
70304;BME280;57712;48.752;11.348;2023-09-19T09:03:04;97582.59;;;16.89;100.00
70304;BME280;57712;48.752;11.348;2023-09-19T09:05:35;97598.88;;;16.96;100.00
70304;BME280;57712;48.752;11.348;2023-09-19T09:08:05;97598.44;;;16.88;100.00
70304;BME280;57712;48.752;11.348;2023-09-19T09:10:33;97601.63;;;16.87;100.00
70304;BME280;57712;48.752;11.348;2023-09-19T09:13:00;97611.53;;;17.15;100.00
70304;BME280;57712;48.752;11.348;2023-09-19T09:15:28;97610.28;;;17.16;100.00
70304;BME280;57712;48.752;11.348;2023-09-19T09:17:56;97599.19;;;16.80;100.00
70304;BME280;57712;48.752;11.348;2023-09-19T09:20:24;97608.72;;;16.88;100.00
70304;BME280;57712;48.752;11.348;2023-09-19T09:22:53;97600.88;;;16.86;100.00
70304;BME280;57712;48.752;11.348;2023-09-19T09:25:22;97605.41;;;17.20;100.00
70304;BME280;57712;48.752;11.348;2023-09-19T09:28:09;97587.31;;;16.70;100.00
70304;BME280;57712;48.752;11.348;2023-09-19T09:30:37;97601.69;;;16.47;100.00
70304;BME280;57712;48.752;11.348;2023-09-19T09:33:11;97591.50;;;16.43;100.00
70304;BME280;57712;48.752;11.348;2023-09-19T09:38:19;97596.00;;;16.50;100.00
70304;BME280;57712;48.752;11.348;2023-09-19T09:40:48;97601.50;;;16.10;100.00
70304;BME280;57712;48.752;11.348;2023-09-19T09:43:30;97596.13;;;16.06;100.00
70304;BME280;57712;48.752;11.348;2023-09-19T09:46:18;97598.69;;;16.01;100.00
70304;BME280;57712;48.752;11.348;2023-09-19T09:48:56;97586.78;;;16.13;100.00
70304;BME280;57712;48.752;11.348;2023-09-19T09:51:48;97593.06;;;16.13;100.00
70304;BME280;57712;48.752;11.348;2023-09-19T09:54:25;97585.22;;;16.43;100.00
70304;BME280;57712;48.752;11.348;2023-09-19T09:57:01;97595.06;;;16.53;100.00
70304;BME280;57712;48.752;11.348;2023-09-19T09:59:45;97598.44;;;16.88;100.00
70304;BME280;57712;48.752;11.348;2023-09-19T10:02:15;97598.28;;;16.92;100.00
70304;BME280;57712;48.752;11.348;2023-09-19T10:04:47;97600.63;;;17.30;100.00
70304;BME280;57712;48.752;11.348;2023-09-19T10:07:36;97596.94;;;17.24;100.00
70304;BME280;57712;48.752;11.348;2023-09-19T10:10:36;97593.22;;;17.27;100.00
70304;BME280;57712;48.752;11.348;2023-09-19T10:13:11;97598.31;;;17.28;100.00
70304;BME280;57712;48.752;11.348;2023-09-19T10:15:42;97588.44;;;17.64;100.00
70304;BME280;57712;48.752;11.348;2023-09-19T10:18:25;97584.59;;;17.71;100.00
70304;BME280;57712;48.752;11.348;2023-09-19T10:20:53;97591.44;;;18.12;100.00
70304;BME280;57712;48.752;11.348;2023-09-19T10:23:21;97589.78;;;18.05;100.00
70304;BME280;57712;48.752;11.348;2023-09-19T10:25:51;97593.41;;;18.21;100.00
70304;BME280;57712;48.752;11.348;2023-09-19T10:28:20;97595.03;;;18.45;100.00
70304;BME280;57712;48.752;11.348;2023-09-19T10:30:51;97593.84;;;18.70;100.00
70304;BME280;57712;48.752;11.348;2023-09-19T10:33:21;97585.16;;;18.78;100.00
70304;BME280;57712;48.752;11.348;2023-09-19T10:35:49;97591.66;;;18.74;100.00
70304;BME280;57712;48.752;11.348;2023-09-19T10:38:24;97583.88;;;18.88;100.00
70304;BME280;57712;48.752;11.348;2023-09-19T10:40:52;97580.13;;;19.15;100.00
70304;BME280;57712;48.752;11.348;2023-09-19T10:43:21;97565.97;;;19.66;100.00
70304;BME280;57712;48.752;11.348;2023-09-19T10:45:49;97572.03;;;19.94;100.00
70304;BME280;57712;48.752;11.348;2023-09-19T10:48:20;97567.44;;;19.91;100.00
70304;BME280;57712;48.752;11.348;2023-09-19T10:50:51;97568.19;;;20.06;100.00
70304;BME280;57712;48.752;11.348;2023-09-19T10:53:22;97575.88;;;19.82;100.00
70304;BME280;57712;48.752;11.348;2023-09-19T10:55:55;97582.28;;;19.35;100.00
70304;BME280;57712;48.752;11.348;2023-09-19T10:58:28;97572.16;;;19.46;100.00
70304;BME280;57712;48.752;11.348;2023-09-19T11:00:57;97575.94;;;19.73;100.00
70304;BME280;57712;48.752;11.348;2023-09-19T11:03:32;97560.13;;;20.08;100.00
70304;BME280;57712;48.752;11.348;2023-09-19T11:06:14;97564.91;;;20.08;100.00
70304;BME280;57712;48.752;11.348;2023-09-19T11:11:44;97569.44;;;20.05;100.00
70304;BME280;57712;48.752;11.348;2023-09-19T11:30:45;97547.03;;;20.44;100.00
70304;BME280;57712;48.752;11.348;2023-09-19T11:33:18;97550.50;;;20.74;100.00
70304;BME280;57712;48.752;11.348;2023-09-19T11:43:48;97545.59;;;20.69;100.00
70304;BME280;57712;48.752;11.348;2023-09-19T11:46:16;97544.97;;;20.59;100.00
70304;BME280;57712;48.752;11.348;2023-09-19T11:48:43;97546.84;;;20.33;100.00
70304;BME280;57712;48.752;11.348;2023-09-19T11:51:12;97549.16;;;20.34;100.00
70304;BME280;57712;48.752;11.348;2023-09-19T11:53:46;97542.59;;;20.37;100.00
70304;BME280;57712;48.752;11.348;2023-09-19T11:56:16;97537.28;;;20.19;100.00
70304;BME280;57712;48.752;11.348;2023-09-19T11:58:44;97543.59;;;20.19;100.00
70304;BME280;57712;48.752;11.348;2023-09-19T12:01:13;97535.13;;;20.29;100.00
70304;BME280;57712;48.752;11.348;2023-09-19T12:03:46;97537.72;;;20.47;100.00
70304;BME280;57712;48.752;11.348;2023-09-19T12:06:15;97542.09;;;20.04;100.00
70304;BME280;57712;48.752;11.348;2023-09-19T12:08:43;97540.19;;;19.95;100.00
70304;BME280;57712;48.752;11.348;2023-09-19T12:11:13;97533.06;;;20.24;100.00
70304;BME280;57712;48.752;11.348;2023-09-19T12:13:45;97531.31;;;20.61;100.00
70304;BME280;57712;48.752;11.348;2023-09-19T12:16:19;97530.78;;;20.78;100.00
70304;BME280;57712;48.752;11.348;2023-09-19T12:18:50;97523.59;;;20.71;100.00
70304;BME280;57712;48.752;11.348;2023-09-19T12:21:24;97525.59;;;20.85;100.00
70304;BME280;57712;48.752;11.348;2023-09-19T12:24:17;97527.09;;;21.53;100.00
70304;BME280;57712;48.752;11.348;2023-09-19T12:26:46;97529.97;;;22.16;100.00
70304;BME280;57712;48.752;11.348;2023-09-19T12:29:20;97513.28;;;21.64;100.00
70304;BME280;57712;48.752;11.348;2023-09-19T12:31:51;97525.53;;;22.35;100.00
70304;BME280;57712;48.752;11.348;2023-09-19T12:34:21;97502.09;;;21.58;100.00
70304;BME280;57712;48.752;11.348;2023-09-19T12:36:49;97503.63;;;21.91;100.00
70304;BME280;57712;48.752;11.348;2023-09-19T12:39:24;97501.03;;;21.87;100.00
70304;BME280;57712;48.752;11.348;2023-09-19T12:41:52;97509.22;;;22.23;100.00
70304;BME280;57712;48.752;11.348;2023-09-19T12:44:20;97506.22;;;22.32;100.00
70304;BME280;57712;48.752;11.348;2023-09-19T12:46:47;97499.44;;;22.87;100.00
70304;BME280;57712;48.752;11.348;2023-09-19T12:49:20;97499.97;;;21.79;100.00
70304;BME280;57712;48.752;11.348;2023-09-19T12:51:47;97494.69;;;22.13;100.00
70304;BME280;57712;48.752;11.348;2023-09-19T12:54:14;97492.75;;;21.67;100.00
70304;BME280;57712;48.752;11.348;2023-09-19T12:56:44;97505.91;;;20.94;100.00
70304;BME280;57712;48.752;11.348;2023-09-19T12:59:12;97500.97;;;20.84;100.00
70304;BME280;57712;48.752;11.348;2023-09-19T13:01:41;97501.34;;;20.91;100.00
70304;BME280;57712;48.752;11.348;2023-09-19T13:04:18;97495.69;;;21.06;100.00
70304;BME280;57712;48.752;11.348;2023-09-19T13:06:47;97495.84;;;21.69;100.00
70304;BME280;57712;48.752;11.348;2023-09-19T13:09:20;97496.16;;;22.08;100.00
70304;BME280;57712;48.752;11.348;2023-09-19T13:11:48;97491.88;;;21.81;100.00
70304;BME280;57712;48.752;11.348;2023-09-19T13:14:24;97490.56;;;21.77;100.00
70304;BME280;57712;48.752;11.348;2023-09-19T13:17:02;97492.59;;;22.51;100.00
70304;BME280;57712;48.752;11.348;2023-09-19T13:19:47;97492.47;;;22.71;100.00
70304;BME280;57712;48.752;11.348;2023-09-19T13:22:37;97485.69;;;22.40;100.00
70304;BME280;57712;48.752;11.348;2023-09-19T13:25:21;97477.50;;;22.20;100.00
70304;BME280;57712;48.752;11.348;2023-09-19T13:27:53;97480.63;;;21.70;100.00